Kezdőlap
METAR-TAF:

METAR-TAF

Repülőterek :

Chicago Rockford International Airport

Rockford, Illinois, Amerikai Egyesült Államok

földrajzi szélesség: 42-11-34N, földrajzi hosszúság: 089-05-36W, magasság: 224 m

Jelenlegi meteorológiai megfigyelések

A jelentés 48 perccel ezelõtt készült, 19:54 UTC
Dél-délnyugati szél 8 kt
Hőmérséklet 24°C
Páratartalom 54%
Légköri nyomás 1022 hPa
Látótávolság: 16.1 km
Szakadozott felhőzet 6000 lábon

METAR: KRFD 191954Z 20008KT 10SM BKN060 24/14 A3018 RMK AO2 SLP217 T02440139

Idő: 15:42 (20:42 UTC)

Előrejelzés

A jelentés 3 órával és 12 perccel ezelõtt készült, 17:30 UTC
Az előrejelzés 19-én 18 óra UTC és 20-én 18 óra UTC között érvényes
Nyugat-északnyugati szél 5 kt
Látótávolság: 10 km
Kevés felhő 5000 lábon
20-én 0200 órától UTC szerint
Különbözõ irányokból fújó szél 3 kt
Látótávolság: 10 km
Szórványos felhőzet 25000 lábon

TAF: KRFD 191730Z 1918/2018 30005KT P6SM FEW050 FM200200 VRB03KT P6SM SCT250

Meteorológiai megfigyelések és előrejelzések több, mint 4000 repülőtéren (METAR és TAF jelentéseket).

A térképen piros és sárga pontok jelzik az elérhető meteorológiai állomásokat.

Mozgassa az egeret a pont fölött, hogy megjelenjen az állomás neve.

Azután kattintson az időjárási megfigyelések és előrejelzések megtekintéséhez.

A térkép megváltoztatása: kattintson a fekete keresztel jelölt zöld gombra ráközelítéshez, a vonallal jelölt zöld gombra távolításhoz, vagy a zöld nyilakra a szomszédos térképek eléréséhez.


METAR-TAF: